Time;durP1;ratioP1;P1;durP2;ratioP2;P2;SDS_P1;SDS_P2;PMS_P1;PMS_P2;Temp;Humidity;BMP_temperature;BMP_pressure;BME280_temperature;BME280_humidity;BME280_pressure;Samples;Min_cycle;Max_cycle;Signal;HPM_P1;HPM_P2
2023/02/03 00:00:07;;;;;;;7.17;6.47;;;5.60;98.00;;;4.97;88.78;98844.22;5090013;28;20456;-79
2023/02/03 00:02:35;;;;;;;9.83;6.10;;;5.50;98.50;;;5.07;88.83;98866.34;5087443;28;20450;-79
2023/02/03 00:05:03;;;;;;;6.10;5.43;;;5.50;99.30;;;4.63;88.91;98810.22;5081142;28;20440;-79
2023/02/03 00:07:31;;;;;;;5.70;5.20;;;5.50;98.00;;;4.73;89.13;98836.88;5091193;28;20505;-79
2023/02/03 00:10:01;;;;;;;8.80;5.90;;;5.50;97.90;;;4.31;89.39;98758.16;5082289;28;20514;-80
2023/02/03 00:12:28;;;;;;;7.00;6.17;;;5.50;99.30;;;4.30;88.87;98745.78;5085656;28;20478;-77
2023/02/03 00:15:16;;;;;;;6.63;5.83;;;5.50;99.20;;;3.94;90.12;98712.78;5076722;28;20440;-79
2023/02/03 00:17:43;;;;;;;8.13;5.67;;;5.50;99.90;;;4.94;90.01;98874.84;5074923;28;20968;-80
2023/02/03 00:20:16;;;;;;;7.43;6.13;;;5.40;99.90;;;4.97;89.59;98865.66;5084106;28;20992;-79
2023/02/03 00:22:43;;;;;;;8.20;5.80;;;5.50;99.90;;;4.65;90.69;98826.97;5090661;28;20448;-78
2023/02/03 00:25:11;;;;;;;6.43;5.80;;;5.40;99.90;;;4.92;90.00;98867.94;5080453;28;20855;-76
2023/02/03 00:27:38;;;;;;;6.50;5.90;;;5.40;99.90;;;4.88;90.21;98866.59;5091976;28;20448;-80
2023/02/03 00:30:07;;;;;;;9.70;7.23;;;5.40;99.90;;;5.00;90.50;98873.38;5084507;28;20463;-78
2023/02/03 00:32:34;;;;;;;7.10;6.43;;;5.40;99.90;;;4.91;90.77;98875.16;5086017;28;20479;-79
2023/02/03 00:35:02;;;;;;;7.40;6.73;;;5.40;99.90;;;4.86;91.90;98876.63;5083107;28;20459;-79
2023/02/03 00:37:30;;;;;;;7.93;5.90;;;5.40;99.90;;;4.80;90.98;98862.88;5076851;28;20525;-79
2023/02/03 00:39:58;;;;;;;8.70;7.80;;;5.40;99.90;;;4.48;91.34;98797.44;5074930;28;20457;-78
2023/02/03 00:42:27;;;;;;;8.13;7.10;;;5.30;99.90;;;4.49;91.49;98799.09;5089939;28;20520;-79
2023/02/03 00:44:54;;;;;;;8.60;7.00;;;5.30;99.90;;;4.81;91.31;98853.84;5080187;28;20444;-78
2023/02/03 00:47:22;;;;;;;11.00;7.40;;;5.40;99.90;;;3.80;91.32;98694.63;5085675;28;20550;-80
2023/02/03 00:49:51;;;;;;;8.07;7.03;;;5.40;99.90;;;3.72;91.32;98678.53;5070738;28;20467;-80
2023/02/03 00:52:37;;;;;;;8.60;7.60;;;5.30;99.90;;;3.98;91.84;98710.63;5084797;28;20969;-80
2023/02/03 00:55:09;;;;;;;8.63;6.40;;;5.40;99.90;;;4.25;91.76;98768.50;5080340;28;20443;-78
2023/02/03 00:57:38;;;;;;;8.43;7.63;;;5.40;99.90;;;4.04;91.23;98725.22;5088301;28;20451;-81
2023/02/03 01:00:11;;;;;;;8.53;7.00;;;5.40;99.90;;;3.90;92.43;98695.38;5078214;28;20466;-79
2023/02/03 01:02:40;;;;;;;8.13;7.43;;;5.30;99.90;;;3.99;92.16;98719.47;5103916;28;20451;-79
2023/02/03 01:05:09;;;;;;;7.80;6.80;;;5.30;99.90;;;4.68;92.45;98834.69;5106048;28;20470;-78
2023/02/03 01:10:30;;;;;;;7.70;7.00;;;5.40;99.90;;;4.66;92.22;98848.22;5110871;28;20869;-79
2023/02/03 01:12:58;;;;;;;8.00;6.97;;;5.40;99.90;;;4.57;91.73;98818.88;5071031;28;20440;-80
2023/02/03 01:15:27;;;;;;;8.23;7.20;;;5.40;99.90;;;4.36;92.38;98798.66;5085457;28;20447;-80
2023/02/03 01:17:57;;;;;;;7.40;6.70;;;5.40;99.90;;;4.39;91.97;98819.75;5062618;28;20782;-79
2023/02/03 01:26:30;;;;;;;9.60;8.10;;;5.30;99.90;;;4.56;92.67;98814.53;5071635;28;20567;-81
2023/02/03 01:29:00;;;;;;;11.53;7.53;;;5.30;99.90;;;4.54;92.26;98812.00;5079740;28;21106;-81
2023/02/03 01:31:32;;;;;;;8.57;7.60;;;5.40;99.90;;;4.90;92.44;98869.94;5087465;28;20482;-79
2023/02/03 01:34:02;;;;;;;9.00;8.10;;;5.40;99.90;;;4.58;92.58;98813.38;5100469;28;20447;-82
2023/02/03 01:36:32;;;;;;;11.40;8.90;;;5.40;99.90;;;3.90;91.89;98700.72;5105107;28;20466;-82
2023/02/03 01:39:36;;;;;;;11.90;8.20;;;5.40;99.90;;;4.39;91.96;98798.34;5103209;28;20481;-83
2023/02/03 01:42:04;;;;;;;12.97;8.53;;;5.40;99.90;;;3.99;92.56;98700.75;5098588;28;20447;-80
2023/02/03 01:44:58;;;;;;;11.87;9.37;;;5.30;99.90;;;4.10;92.10;98721.91;5101722;28;20457;-79
2023/02/03 01:47:49;;;;;;;10.70;8.77;;;5.40;99.90;;;4.30;92.38;98761.81;5096985;28;20464;-79
2023/02/03 01:50:20;;;;;;;11.30;10.27;;;5.40;99.90;;;4.93;92.92;98848.22;5084288;28;20501;-78
2023/02/03 01:52:52;;;;;;;11.20;10.07;;;5.40;99.90;;;4.84;92.55;98838.47;5082002;28;20932;-78
2023/02/03 01:55:27;;;;;;;13.23;9.43;;;5.40;99.90;;;4.77;92.00;98816.81;5101936;28;20485;-80
2023/02/03 01:57:59;;;;;;;14.20;10.63;;;5.40;99.90;;;4.94;91.93;98841.88;5095202;28;20448;-80
2023/02/03 02:00:27;;;;;;;11.10;8.97;;;5.40;99.90;;;4.75;91.61;98798.22;5091250;28;20448;-78
2023/02/03 02:02:58;;;;;;;10.77;9.20;;;5.40;99.90;;;4.75;91.50;98798.22;5091928;28;20469;-81
2023/02/03 02:05:36;;;;;;;13.80;10.20;;;5.40;99.90;;;4.96;91.39;98810.41;5067444;28;21110;-80
2023/02/03 02:08:05;;;;;;;12.27;9.80;;;5.40;99.90;;;4.77;91.09;98804.25;5086998;28;20471;-81
2023/02/03 02:10:35;;;;;;;12.37;8.90;;;5.40;99.90;;;4.99;91.52;98817.25;5083097;28;21023;-78
2023/02/03 02:13:05;;;;;;;12.77;10.10;;;5.50;99.90;;;4.30;90.78;98676.22;5089173;28;20455;-81
2023/02/03 02:15:42;;;;;;;11.53;10.40;;;5.50;99.90;;;4.56;90.68;98719.03;5086876;28;20464;-79
2023/02/03 02:40:09;;;;;;;10.00;9.00;;;5.60;99.90;;;5.03;89.88;98795.38;5079204;28;21341;-80
2023/02/03 02:42:48;;;;;;;9.90;8.90;;;5.50;99.70;;;5.11;89.85;98807.94;5087517;28;20454;-79
2023/02/03 02:45:22;;;;;;;10.90;8.70;;;5.60;99.70;;;4.42;90.06;98685.66;5083634;28;20439;-79
2023/02/03 02:47:53;;;;;;;10.00;8.83;;;5.60;99.90;;;5.20;89.39;98816.88;5078925;28;20458;-77
2023/02/03 02:50:25;;;;;;;9.17;8.13;;;5.60;99.90;;;5.17;89.82;98817.19;5082549;28;20880;-79
2023/02/03 02:52:54;;;;;;;14.37;9.90;;;5.60;99.60;;;4.78;89.86;98768.50;5085912;28;20448;-79
2023/02/03 02:55:26;;;;;;;13.20;8.73;;;5.60;99.70;;;5.08;89.23;98792.22;5084838;28;20451;-80
2023/02/03 02:57:58;;;;;;;10.73;8.07;;;5.60;98.90;;;5.23;88.47;98813.84;5089536;28;20951;-80
2023/02/03 03:00:25;;;;;;;13.60;8.97;;;5.70;98.30;;;5.02;88.63;98784.81;5088103;28;20936;-77
2023/02/03 03:02:56;;;;;;;8.63;7.70;;;5.70;98.30;;;4.50;89.35;98688.38;5060091;28;20514;-79
2023/02/03 03:05:27;;;;;;;11.40;8.67;;;5.70;98.60;;;5.38;88.49;98803.38;5080073;28;21274;-79
2023/02/03 03:08:01;;;;;;;9.00;7.70;;;5.70;99.00;;;5.34;88.92;98807.38;5096087;28;20455;-82
2023/02/03 03:10:34;;;;;;;11.70;8.30;;;5.70;98.90;;;5.07;88.58;98775.28;5091277;28;21093;-80
2023/02/03 03:13:06;;;;;;;15.90;9.73;;;5.70;99.00;;;5.03;88.75;98765.91;5089409;28;20476;-78
2023/02/03 03:18:26;;;;;;;7.73;6.93;;;5.80;98.80;;;5.05;88.42;98776.47;5088397;28;20517;-80
2023/02/03 03:21:07;;;;;;;9.60;7.57;;;5.80;98.80;;;4.90;89.00;98757.47;5088403;28;21002;-78
2023/02/03 03:23:52;;;;;;;8.97;7.33;;;5.70;98.60;;;5.16;89.20;98788.72;5073299;28;20456;-79
2023/02/03 03:26:35;;;;;;;9.30;8.40;;;5.70;99.50;;;5.25;88.84;98795.81;5075832;28;20776;-81
2023/02/03 03:29:13;;;;;;;10.00;7.70;;;5.70;98.90;;;5.44;88.24;98816.09;5094603;28;20451;-80
2023/02/03 03:31:41;;;;;;;7.00;6.10;;;5.70;99.10;;;5.14;88.38;98772.78;5100903;28;20497;-82
2023/02/03 03:34:10;;;;;;;12.70;6.87;;;5.80;97.80;;;4.77;88.16;98721.25;5084523;28;20445;-80
2023/02/03 03:40:30;;;;;;;6.77;5.90;;;5.80;98.10;;;5.27;88.02;98812.56;5090375;28;20456;-80
2023/02/03 03:46:49;;;;;;;6.40;5.77;;;5.90;96.90;;;5.38;88.28;98833.72;5087535;28;20443;-79
2023/02/03 03:49:45;;;;;;;6.37;5.77;;;5.90;96.50;;;4.28;87.91;98657.66;5093185;28;20469;-82
2023/02/03 03:52:37;;;;;;;6.83;5.30;;;5.90;96.80;;;5.06;87.55;98811.09;5089653;28;20486;-81
2023/02/03 03:55:33;;;;;;;6.17;5.57;;;5.90;96.20;;;4.94;87.81;98748.97;5090707;28;20501;-80
2023/02/03 03:58:10;;;;;;;7.30;5.27;;;5.90;96.20;;;5.31;87.46;98805.84;5087192;28;20962;-79
2023/02/03 04:06:45;;;;;;;5.70;5.20;;;5.90;96.10;;;5.48;87.47;98822.84;5090532;28;20467;-80
2023/02/03 04:12:11;;;;;;;6.60;5.90;;;5.90;96.50;;;5.14;87.32;98758.59;5091845;28;20470;-81
2023/02/03 04:14:59;;;;;;;6.03;5.53;;;5.90;96.40;;;5.04;86.75;98738.13;5104480;28;20454;-81
2023/02/03 04:17:27;;;;;;;8.10;5.37;;;6.00;95.50;;;5.31;86.59;98780.91;5107013;28;20459;-80
2023/02/03 04:22:40;;;;;;;6.10;5.50;;;6.00;95.90;;;5.55;87.11;98796.22;5116638;28;20514;-83
2023/02/03 04:28:36;;;;;;;6.60;5.63;;;6.00;95.70;;;5.33;86.21;98750.25;5103669;28;20448;-82
2023/02/03 04:31:05;;;;;;;6.93;5.97;;;6.00;95.60;;;5.67;86.53;98802.94;5112981;28;20466;-82
2023/02/03 04:33:32;;;;;;;7.43;5.53;;;6.00;95.80;;;5.60;86.39;98788.53;5127098;28;20547;-80
2023/02/03 04:36:00;;;;;;;6.10;5.40;;;6.00;95.80;;;5.04;86.44;98710.50;5090804;28;20548;-78
2023/02/03 04:38:28;;;;;;;7.90;5.80;;;6.00;95.40;;;5.53;86.34;98798.19;5111810;28;20451;-80
2023/02/03 04:41:22;;;;;;;6.20;5.70;;;6.00;95.10;;;5.63;86.66;98782.81;5099361;28;20525;-77
2023/02/03 04:43:49;;;;;;;6.07;5.47;;;6.00;94.90;;;5.61;86.46;98776.78;5092894;28;20494;-78
2023/02/03 04:46:17;;;;;;;6.20;5.17;;;6.00;95.40;;;5.27;87.16;98750.06;5091623;28;20467;-75
2023/02/03 04:48:45;;;;;;;7.50;5.83;;;5.90;95.40;;;5.28;87.08;98744.56;5109747;28;20460;-76
2023/02/03 04:51:12;;;;;;;6.83;5.80;;;5.90;95.90;;;5.36;86.81;98779.41;5103801;28;20538;-77
2023/02/03 04:53:39;;;;;;;7.57;5.80;;;5.90;96.10;;;5.54;86.64;98765.06;5110864;28;20438;-78
2023/02/03 04:56:07;;;;;;;6.80;5.40;;;5.90;95.60;;;5.58;86.33;98766.41;5111761;28;20459;-80
2023/02/03 04:58:37;;;;;;;6.33;5.80;;;6.00;95.70;;;5.03;86.38;98682.88;5109585;28;20478;-79
2023/02/03 05:01:09;;;;;;;5.83;5.30;;;5.90;95.30;;;5.47;86.69;98769.38;5103487;28;20451;-80
2023/02/03 05:03:36;;;;;;;6.53;5.93;;;6.00;95.10;;;5.49;86.27;98778.94;5109931;28;20476;-79
2023/02/03 05:06:04;;;;;;;7.33;6.07;;;5.90;95.00;;;5.62;86.40;98789.19;5091221;28;21013;-78
2023/02/03 05:08:33;;;;;;;6.73;5.30;;;6.00;94.70;;;5.43;86.31;98781.44;5080748;28;20495;-80
2023/02/03 05:11:00;;;;;;;7.40;5.77;;;6.00;94.90;;;5.38;86.10;98776.56;5085124;28;20447;-78
2023/02/03 05:13:28;;;;;;;6.70;5.30;;;6.00;94.80;;;5.38;85.90;98772.06;5068866;28;20447;-80
2023/02/03 05:15:57;;;;;;;7.40;5.77;;;6.00;94.50;;;5.49;85.66;98772.75;5089207;28;20455;-81
2023/02/03 05:18:24;;;;;;;5.80;5.30;;;6.00;94.50;;;5.34;85.67;98754.63;5089006;28;20447;-81
2023/02/03 05:20:52;;;;;;;5.17;4.70;;;6.00;94.20;;;5.42;85.70;98777.91;5087571;28;20473;-80
2023/02/03 05:23:20;;;;;;;5.40;4.70;;;6.00;94.30;;;5.52;85.51;98791.16;5078862;28;20480;-80
2023/02/03 05:25:47;;;;;;;7.20;4.60;;;6.00;93.90;;;5.54;85.71;98799.91;5086781;28;20453;-82
2023/02/03 05:28:15;;;;;;;4.87;4.40;;;6.00;93.80;;;5.22;85.63;98777.34;5090790;28;20522;-82
2023/02/03 05:30:43;;;;;;;5.50;4.47;;;6.00;93.80;;;4.89;85.28;98704.91;5055568;28;21091;-80
2023/02/03 05:33:14;;;;;;;5.20;4.80;;;6.00;93.80;;;5.49;85.53;98808.44;5077235;28;20472;-79
2023/02/03 05:35:43;;;;;;;4.90;4.50;;;6.00;94.10;;;5.49;85.00;98797.72;5099588;28;20464;-79
2023/02/03 05:38:12;;;;;;;5.13;4.67;;;6.00;94.00;;;5.57;85.45;98791.53;5067326;28;20501;-70
2023/02/03 05:43:40;;;;;;;4.50;4.10;;;6.00;93.60;;;5.44;84.96;98799.19;5006896;28;20454;-75
2023/02/03 05:46:08;;;;;;;4.03;3.67;;;6.00;93.20;;;5.55;85.15;98803.41;5017493;28;20461;-70
2023/02/03 05:48:38;;;;;;;4.03;3.63;;;6.00;93.60;;;5.59;84.80;98800.25;5045956;28;20794;-69
2023/02/03 05:51:05;;;;;;;4.83;4.10;;;6.00;93.60;;;5.59;85.41;98805.59;5083422;28;20444;-69
2023/02/03 05:53:32;;;;;;;4.07;3.70;;;6.00;93.80;;;5.51;85.25;98802.91;5081269;28;20453;-70
2023/02/03 05:56:00;;;;;;;3.60;3.00;;;6.10;93.40;;;5.49;85.28;98799.53;5081092;28;20452;-68
2023/02/03 05:58:27;;;;;;;2.90;2.70;;;6.00;93.70;;;5.51;85.82;98802.91;5079871;28;20501;-71
2023/02/03 06:00:55;;;;;;;3.93;3.37;;;6.00;93.80;;;5.57;85.67;98802.25;5084197;28;20461;-71
2023/02/03 06:03:22;;;;;;;4.27;3.90;;;6.00;94.10;;;5.56;85.82;98789.84;5072768;28;20456;-69
2023/02/03 06:05:51;;;;;;;3.50;3.13;;;6.00;94.30;;;5.52;85.42;98772.41;5076972;28;20444;-70
2023/02/03 06:08:18;;;;;;;3.80;3.50;;;6.00;94.30;;;5.57;85.94;98780.81;5085863;28;20501;-70
2023/02/03 06:10:45;;;;;;;3.80;3.40;;;6.00;94.50;;;5.56;85.97;98767.56;5076985;28;20447;-72
2023/02/03 06:13:15;;;;;;;3.23;2.93;;;6.00;94.60;;;5.55;85.88;98750.66;5094157;28;21344;-71
2023/02/03 06:15:43;;;;;;;3.60;3.30;;;6.00;94.70;;;5.07;85.16;98667.31;5100143;28;20807;-75
2023/02/03 06:18:10;;;;;;;3.60;3.30;;;6.00;94.20;;;5.63;85.30;98747.97;5081920;28;20458;-69
2023/02/03 06:20:37;;;;;;;3.40;3.10;;;6.00;94.20;;;5.68;85.13;98748.31;5079359;28;20462;-68
2023/02/03 06:23:06;;;;;;;2.70;2.50;;;6.10;93.70;;;5.59;85.02;98735.06;5093384;28;20440;-70
2023/02/03 06:25:33;;;;;;;3.07;2.87;;;6.10;93.30;;;5.63;85.05;98742.59;5073741;28;20838;-69
2023/02/03 06:28:01;;;;;;;2.97;2.70;;;6.10;93.70;;;5.65;85.65;98732.56;5081914;28;20486;-70
2023/02/03 06:30:28;;;;;;;3.00;2.43;;;6.10;94.20;;;5.76;85.39;98739.47;5079745;28;20677;-69
2023/02/03 06:32:55;;;;;;;3.00;2.70;;;6.10;94.20;;;5.41;85.21;98693.16;5075021;28;20479;-77
2023/02/03 06:35:23;;;;;;;2.60;2.40;;;6.10;94.00;;;5.62;86.13;98730.22;5074502;28;21022;-77
2023/02/03 06:37:50;;;;;;;2.70;2.50;;;6.10;94.30;;;5.50;85.95;98721.66;5080968;28;20459;-77
2023/02/03 06:40:19;;;;;;;4.30;2.97;;;6.00;94.50;;;5.56;85.80;98727.34;5079500;28;20472;-77
2023/02/03 06:42:50;;;;;;;3.60;2.83;;;6.00;94.70;;;5.27;85.52;98680.41;5094979;28;20466;-77
2023/02/03 06:45:18;;;;;;;2.97;2.73;;;6.10;94.40;;;5.51;85.76;98731.38;5095933;28;20479;-78
2023/02/03 06:47:46;;;;;;;3.37;2.43;;;6.00;94.60;;;5.55;85.75;98734.56;5106437;28;20449;-75
2023/02/03 06:50:16;;;;;;;2.27;2.13;;;6.10;94.20;;;5.57;85.65;98742.44;5098229;28;20557;-77
2023/02/03 06:52:43;;;;;;;3.10;2.60;;;6.10;94.10;;;5.62;85.22;98751.66;5099916;28;20501;-78
2023/02/03 06:55:11;;;;;;;3.53;2.60;;;6.10;93.70;;;5.25;84.95;98696.66;5090791;28;20444;-76
2023/02/03 06:57:45;;;;;;;3.00;2.30;;;6.10;93.30;;;5.62;85.17;98751.66;5093834;28;20490;-80
2023/02/03 07:00:15;;;;;;;3.37;2.60;;;6.10;93.20;;;5.71;84.34;98754.34;5082992;28;20513;-78
2023/02/03 07:02:43;;;;;;;4.03;2.83;;;6.10;93.40;;;5.71;83.95;98738.28;5081042;28;20462;-78
2023/02/03 07:05:10;;;;;;;3.23;2.50;;;6.20;92.70;;;5.78;83.38;98733.91;5079041;28;20448;-77
2023/02/03 07:07:38;;;;;;;5.23;2.90;;;6.20;92.50;;;5.71;83.36;98733.72;5097174;28;20463;-77
2023/02/03 07:10:06;;;;;;;2.23;2.03;;;6.20;92.40;;;5.72;83.53;98737.25;5089110;28;20534;-77
2023/02/03 07:12:35;;;;;;;3.33;2.10;;;6.20;92.10;;;5.86;83.03;98743.78;5083767;28;21084;-78
2023/02/03 07:15:05;;;;;;;2.70;2.50;;;6.20;92.10;;;5.93;82.95;98734.09;5079478;28;20448;-79
2023/02/03 07:17:32;;;;;;;2.80;2.60;;;6.20;92.50;;;5.82;82.64;98703.06;5103392;28;20454;-79
2023/02/03 07:20:00;;;;;;;2.60;2.40;;;6.20;92.20;;;5.88;82.78;98745.31;5104504;28;20836;-77
2023/02/03 07:22:27;;;;;;;1.93;1.83;;;6.30;91.70;;;5.78;82.42;98747.31;5095163;28;20452;-79
2023/02/03 07:24:54;;;;;;;2.60;2.33;;;6.30;91.30;;;5.77;82.58;98742.97;5078516;28;20459;-79
2023/02/03 07:27:22;;;;;;;2.30;2.10;;;6.30;91.70;;;5.67;82.21;98757.34;5084912;28;20450;-79
2023/02/03 07:29:49;;;;;;;2.60;2.40;;;6.30;91.20;;;5.76;82.76;98760.06;5082338;28;20447;-79
2023/02/03 07:32:18;;;;;;;2.00;1.90;;;6.30;91.20;;;5.27;82.56;98678.56;5082335;28;20473;-80
2023/02/03 07:34:47;;;;;;;4.47;2.70;;;6.30;91.40;;;5.85;82.23;98750.16;5074963;28;20539;-80
2023/02/03 07:37:14;;;;;;;3.63;2.90;;;6.30;91.20;;;5.89;82.47;98795.28;5083695;28;20459;-81
2023/02/03 07:39:42;;;;;;;3.07;2.83;;;6.30;91.50;;;5.68;82.77;98750.97;5079840;28;20483;-78
2023/02/03 07:42:09;;;;;;;2.40;2.20;;;6.40;91.40;;;5.82;82.73;98767.41;5072110;28;20448;-79
2023/02/03 07:44:37;;;;;;;2.33;2.13;;;6.30;91.40;;;5.71;82.74;98749.00;5079250;28;20455;-77
2023/02/03 07:47:05;;;;;;;3.10;2.80;;;6.30;91.10;;;5.81;82.62;98768.44;5080344;28;20459;-78
2023/02/03 07:49:34;;;;;;;5.00;2.03;;;6.30;91.40;;;5.71;82.00;98768.59;5074342;28;20452;-80
2023/02/03 07:52:01;;;;;;;2.40;2.20;;;6.30;90.90;;;5.91;82.10;98771.78;5102811;27;20521;-79
2023/02/03 07:54:28;;;;;;;2.67;2.43;;;6.40;91.10;;;5.93;81.78;98779.69;5083991;28;20806;-77
2023/02/03 07:56:55;;;;;;;4.90;3.17;;;6.40;90.90;;;5.96;81.50;98790.91;5092541;28;20447;-76
2023/02/03 07:59:23;;;;;;;4.93;2.97;;;6.50;90.80;;;5.90;82.37;98780.84;5090219;28;20465;-77
2023/02/03 08:01:50;;;;;;;3.50;2.77;;;6.50;90.90;;;5.94;81.86;98765.28;5087514;28;20451;-80
2023/02/03 08:04:18;;;;;;;3.20;2.43;;;6.50;91.30;;;6.03;82.26;98775.00;5076363;28;20655;-78
2023/02/03 08:06:47;;;;;;;3.07;2.40;;;6.50;91.40;;;5.91;82.44;98771.78;5079905;28;20458;-78
2023/02/03 08:09:14;;;;;;;6.10;3.30;;;6.50;91.30;;;5.96;82.88;98764.06;5093541;27;20459;-80
2023/02/03 08:11:41;;;;;;;3.40;3.10;;;6.50;91.70;;;6.03;82.85;98771.50;5096986;27;20894;-78
2023/02/03 08:14:09;;;;;;;2.63;2.37;;;6.50;91.60;;;6.14;82.61;98752.41;5086303;28;21133;-77
2023/02/03 08:16:36;;;;;;;3.27;2.80;;;6.60;92.00;;;6.15;82.16;98767.50;5089422;28;20444;-78
2023/02/03 08:19:03;;;;;;;3.07;2.77;;;6.60;91.40;;;5.64;82.36;98698.69;5101659;28;20463;-76
2023/02/03 08:21:31;;;;;;;4.00;3.10;;;6.50;91.60;;;6.01;82.41;98760.06;5100324;28;20485;-78
2023/02/03 08:23:59;;;;;;;3.23;2.50;;;6.50;91.40;;;6.08;82.13;98782.56;5096543;28;20585;-79
2023/02/03 08:26:26;;;;;;;2.73;2.53;;;6.60;91.20;;;6.03;82.42;98771.50;5086095;28;20536;-79
2023/02/03 08:28:54;;;;;;;5.87;2.73;;;6.60;91.10;;;5.96;82.45;98753.34;5086888;28;20470;-76
2023/02/03 08:31:21;;;;;;;3.07;2.50;;;6.50;91.30;;;6.04;82.57;98770.50;5080072;28;21078;-80
2023/02/03 08:33:50;;;;;;;3.30;2.70;;;6.60;91.30;;;6.12;81.87;98778.53;5082673;28;20506;-79
2023/02/03 08:36:17;;;;;;;3.50;2.30;;;6.60;91.20;;;5.99;82.50;98783.53;5083487;28;20474;-80
2023/02/03 08:38:45;;;;;;;3.50;2.80;;;6.60;90.70;;;6.15;81.88;98778.22;5090044;28;20464;-76
2023/02/03 08:41:16;;;;;;;3.13;2.30;;;6.60;91.10;;;6.12;81.37;98770.47;5095700;28;20459;-76
2023/02/03 08:43:45;;;;;;;3.20;2.43;;;6.60;90.80;;;6.21;81.20;98769.47;5111161;28;20472;-76
2023/02/03 08:46:13;;;;;;;2.80;2.10;;;6.70;90.80;;;6.02;82.11;98777.88;5103023;28;20467;-76
2023/02/03 08:48:41;;;;;;;2.50;2.27;;;6.60;90.50;;;6.09;82.01;98779.72;5110359;28;20482;-77
2023/02/03 08:51:11;;;;;;;2.73;2.53;;;6.60;90.60;;;6.10;81.43;98775.19;5088178;28;20454;-76
2023/02/03 08:53:38;;;;;;;2.53;2.33;;;6.60;90.70;;;6.08;81.63;98766.47;5077459;28;20472;-78
2023/02/03 08:56:07;;;;;;;3.67;2.60;;;6.60;90.70;;;6.08;81.18;98771.84;5077954;28;20498;-77
2023/02/03 08:58:36;;;;;;;4.63;2.80;;;6.60;90.50;;;6.22;81.01;98773.84;5077458;28;20454;-77
2023/02/03 09:01:08;;;;;;;2.97;2.67;;;6.60;90.80;;;6.21;80.62;98763.25;5090503;28;20457;-77
2023/02/03 09:03:37;;;;;;;2.80;2.17;;;6.70;90.40;;;5.91;81.20;98744.97;5088936;28;20949;-77
2023/02/03 09:06:06;;;;;;;2.77;2.40;;;6.70;90.30;;;6.15;80.70;98775.53;5075577;28;20472;-82
2023/02/03 09:08:33;;;;;;;2.37;2.17;;;6.70;90.30;;;6.05;81.12;98758.75;5088667;28;20483;-81
2023/02/03 09:11:01;;;;;;;2.80;2.50;;;6.70;90.30;;;6.11;81.25;98755.38;5096240;27;21762;-81
2023/02/03 09:13:29;;;;;;;2.50;2.30;;;6.70;90.30;;;6.05;81.17;98739.97;5087727;28;20462;-83
2023/02/03 09:16:00;;;;;;;2.33;2.13;;;6.70;90.50;;;5.80;80.69;98705.94;5085312;28;20450;-80
2023/02/03 09:18:27;;;;;;;2.80;2.33;;;6.60;89.80;;;5.66;80.51;98704.72;5107425;27;21033;-79
2023/02/03 09:21:01;;;;;;;3.17;2.97;;;6.70;89.90;;;6.18;80.18;98748.34;5083061;28;20887;-79
2023/02/03 09:23:29;;;;;;;4.13;2.50;;;6.70;89.50;;;6.24;79.97;98747.66;5075763;28;21864;-81
2023/02/03 09:26:01;;;;;;;3.77;2.80;;;6.70;89.60;;;6.28;79.25;98750.84;5078434;28;20459;-83
2023/02/03 09:28:29;;;;;;;2.80;2.60;;;6.70;88.90;;;6.24;79.65;98747.66;5079730;28;20810;-82
2023/02/03 09:31:01;;;;;;;2.87;2.60;;;6.70;88.70;;;6.27;79.25;98726.84;5083517;28;20769;-81
2023/02/03 09:33:29;;;;;;;2.77;2.57;;;6.80;88.00;;;6.36;78.96;98737.41;5078754;28;20502;-82
2023/02/03 09:35:58;;;;;;;3.93;2.43;;;6.80;87.80;;;6.48;78.70;98735.22;5077968;28;20457;-76
2023/02/03 09:38:27;;;;;;;2.60;2.40;;;6.90;87.80;;;6.41;78.20;98711.91;5076840;28;20447;-74
2023/02/03 09:40:59;;;;;;;2.30;2.20;;;6.90;87.50;;;6.71;77.77;98725.59;5077655;28;20888;-77
2023/02/03 09:43:37;;;;;;;3.30;2.67;;;7.00;87.10;;;6.50;77.89;98711.72;5096526;28;20558;-83
2023/02/03 09:46:12;;;;;;;2.70;2.50;;;7.10;86.60;;;6.41;77.55;98696.63;5075814;28;20461;-85
2023/02/03 09:48:45;;;;;;;2.60;2.37;;;7.10;86.30;;;6.56;78.20;98712.03;5083325;28;20546;-79
2023/02/03 09:51:20;;;;;;;4.83;2.50;;;7.10;86.30;;;6.60;77.96;98719.56;5075598;28;20467;-75
2023/02/03 09:53:57;;;;;;;2.90;2.70;;;7.10;86.50;;;6.54;78.55;98724.81;5084740;28;20482;-75
2023/02/03 09:56:30;;;;;;;4.27;2.60;;;7.00;86.80;;;6.61;78.42;98723.13;5094644;27;20529;-76
2023/02/03 09:58:57;;;;;;;8.77;2.87;;;7.10;86.90;;;6.39;77.40;98658.41;5083546;28;21032;-75
2023/02/03 10:01:34;;;;;;;2.80;2.60;;;7.10;86.50;;;6.63;78.12;98721.09;5095760;28;20823;-76
2023/02/03 10:04:14;;;;;;;3.10;2.77;;;7.10;86.10;;;6.53;77.47;98713.25;5082797;28;20487;-75
2023/02/03 10:06:45;;;;;;;2.83;2.63;;;7.10;85.90;;;6.49;77.88;98731.53;5075053;28;20544;-78
2023/02/03 10:09:37;;;;;;;3.67;2.80;;;7.10;86.00;;;6.58;77.23;98718.06;5075737;28;20476;-76
2023/02/03 10:12:41;;;;;;;3.60;2.80;;;7.10;85.70;;;6.66;77.30;98726.09;5069982;28;20506;-77
2023/02/03 10:15:35;;;;;;;4.00;3.00;;;7.10;85.60;;;6.59;76.89;98714.38;5095317;27;21279;-77
2023/02/03 10:18:08;;;;;;;3.60;3.10;;;7.10;85.30;;;6.80;76.60;98716.47;5081286;28;20463;-78
2023/02/03 10:20:41;;;;;;;3.43;3.13;;;7.20;85.40;;;6.80;76.88;98706.59;5080462;28;20484;-78
2023/02/03 10:23:16;;;;;;;5.60;2.70;;;7.30;85.40;;;6.86;76.43;98706.88;5077492;28;20446;-76
2023/02/03 10:25:54;;;;;;;3.60;2.20;;;7.20;85.00;;;6.77;76.23;98689.97;5075632;28;21358;-76
2023/02/03 10:28:24;;;;;;;2.83;2.20;;;7.30;84.60;;;6.76;76.58;98702.59;5073536;28;20495;-77
2023/02/03 10:30:57;;;;;;;2.17;2.07;;;7.30;85.00;;;6.75;76.81;98692.84;5092904;28;20851;-75
2023/02/03 10:33:28;;;;;;;2.60;2.40;;;7.30;85.10;;;6.74;76.74;98685.78;5082602;28;20528;-76
2023/02/03 10:36:06;;;;;;;2.27;2.07;;;7.20;85.00;;;6.84;76.53;98679.38;5080497;28;20471;-76
2023/02/03 10:38:46;;;;;;;2.60;2.37;;;7.30;84.70;;;6.88;76.49;98688.75;5080160;28;20463;-76
2023/02/03 10:41:15;;;;;;;2.43;2.10;;;7.30;85.10;;;7.02;75.97;98671.88;5090978;28;20446;-78
2023/02/03 10:43:50;;;;;;;2.87;2.60;;;7.30;85.00;;;6.74;76.46;98664.28;5084657;28;21152;-75
2023/02/03 10:46:20;;;;;;;2.70;2.10;;;7.30;84.80;;;6.99;76.14;98674.13;5081273;28;20507;-77
2023/02/03 10:48:49;;;;;;;2.80;2.60;;;7.30;84.80;;;6.76;76.51;98653.38;5082352;28;20998;-77
2023/02/03 10:51:21;;;;;;;4.87;2.80;;;7.30;85.10;;;6.85;76.31;98660.41;5094751;28;21237;-76
2023/02/03 10:53:52;;;;;;;3.40;2.23;;;7.30;85.10;;;6.91;76.52;98658.88;5081215;28;20508;-74
2023/02/03 10:56:23;;;;;;;2.80;2.50;;;7.30;85.00;;;6.91;76.17;98664.25;5080207;28;20453;-78
2023/02/03 10:58:55;;;;;;;2.83;2.63;;;7.40;84.80;;;6.84;76.35;98657.88;5084372;28;20471;-76
2023/02/03 11:01:26;;;;;;;1.80;1.70;;;7.30;84.70;;;6.40;76.25;98592.97;5084853;28;22300;-76
2023/02/03 11:04:03;;;;;;;2.37;2.17;;;7.30;84.80;;;6.88;76.34;98653.81;5086656;28;20655;-75
2023/02/03 11:06:35;;;;;;;2.23;1.97;;;7.30;84.60;;;6.85;75.94;98654.19;5084278;28;21004;-74
2023/02/03 11:09:02;;;;;;;2.60;2.40;;;7.40;84.30;;;6.88;75.83;98632.34;5090157;28;20448;-74
2023/02/03 11:11:34;;;;;;;2.20;2.00;;;7.40;84.20;;;6.92;75.87;98647.13;5099655;28;21168;-75
2023/02/03 11:14:17;;;;;;;2.87;2.40;;;7.40;84.10;;;6.93;76.08;98632.66;5094722;28;20484;-76
2023/02/03 11:16:46;;;;;;;2.30;2.13;;;7.40;84.50;;;6.93;75.86;98616.53;5091614;28;20451;-77
2023/02/03 11:19:18;;;;;;;4.87;2.17;;;7.40;84.40;;;6.98;75.79;98606.09;5092082;28;20451;-70
2023/02/03 11:21:48;;;;;;;3.10;2.63;;;7.50;84.30;;;6.98;76.08;98589.16;5085396;28;20456;-75
2023/02/03 11:24:21;;;;;;;2.80;2.60;;;7.50;84.30;;;7.01;74.93;98586.91;5084935;28;20439;-72
2023/02/03 11:26:53;;;;;;;2.97;2.17;;;7.50;83.60;;;6.87;75.11;98582.31;5082177;28;20455;-72
2023/02/03 11:29:27;;;;;;;2.47;2.27;;;7.50;83.20;;;6.92;74.58;98572.72;5079810;28;20458;-75
2023/02/03 11:31:56;;;;;;;2.90;2.20;;;7.50;83.30;;;7.09;74.23;98576.13;5077611;28;20452;-73
2023/02/03 11:34:30;;;;;;;3.30;2.10;;;7.60;82.90;;;7.15;74.21;98574.56;5079807;28;20468;-74
2023/02/03 11:36:57;;;;;;;2.27;2.07;;;7.70;83.00;;;7.23;73.76;98595.19;5085834;28;20535;-73
2023/02/03 11:39:28;;;;;;;1.47;1.37;;;7.70;82.80;;;7.00;73.85;98569.13;5090953;28;20447;-76
2023/02/03 11:41:56;;;;;;;3.03;2.77;;;7.70;82.50;;;7.28;73.62;98567.75;5085215;28;20463;-72
2023/02/03 11:44:28;;;;;;;2.07;1.57;;;7.70;82.70;;;7.03;73.86;98571.44;5084741;28;20451;-75
2023/02/03 11:47:00;;;;;;;2.83;2.20;;;7.70;82.30;;;6.76;73.97;98522.63;5095939;27;20605;-75